Time;durP1;ratioP1;P1;durP2;ratioP2;P2;SDS_P1;SDS_P2;PMS_P1;PMS_P2;Temp;Humidity;BMP_temperature;BMP_pressure;BME280_temperature;BME280_humidity;BME280_pressure;Samples;Min_cycle;Max_cycle;Signal;HPM_P1;HPM_P2
2022/08/10 00:01:20;;;;;;;;;;;25.80;99.90;;;;;;5093785;28;19908;-75
2022/08/10 00:03:45;;;;;;;;;;;25.80;99.90;;;;;;5093538;28;19952;-77
2022/08/10 00:06:11;;;;;;;;;;;25.70;99.90;;;;;;5093289;28;19916;-76
2022/08/10 00:08:37;;;;;;;;;;;25.70;99.90;;;;;;5093644;28;20416;-77
2022/08/10 00:11:02;;;;;;;;;;;25.70;99.90;;;;;;5093997;28;19916;-76
2022/08/10 00:13:28;;;;;;;;;;;25.70;99.90;;;;;;5093872;28;19912;-76
2022/08/10 00:15:54;;;;;;;;;;;25.70;99.90;;;;;;5076986;28;19908;-77
2022/08/10 00:18:19;;;;;;;;;;;25.70;99.90;;;;;;5095531;28;19909;-76
2022/08/10 00:20:45;;;;;;;;;;;25.60;99.90;;;;;;5095062;28;20038;-76
2022/08/10 00:23:11;;;;;;;;;;;25.60;99.90;;;;;;5094614;28;20513;-75
2022/08/10 00:25:36;;;;;;;;;;;25.60;99.90;;;;;;5093675;28;19908;-76
2022/08/10 00:28:02;;;;;;;;;;;25.60;99.90;;;;;;5093266;28;19912;-75
2022/08/10 00:30:28;;;;;;;;;;;25.60;99.90;;;;;;5093037;28;19912;-75
2022/08/10 00:32:53;;;;;;;;;;;25.60;99.90;;;;;;5074641;28;20006;-74
2022/08/10 00:35:19;;;;;;;;;;;25.50;99.90;;;;;;5092709;28;20432;-76
2022/08/10 00:37:45;;;;;;;;;;;25.50;99.90;;;;;;5092792;28;19908;-74
2022/08/10 00:40:11;;;;;;;;;;;25.40;99.90;;;;;;5093129;28;19931;-74
2022/08/10 00:42:36;;;;;;;;;;;25.30;99.90;;;;;;5092760;28;20413;-75
2022/08/10 00:45:02;;;;;;;;;;;25.20;99.90;;;;;;5092915;28;19912;-76
2022/08/10 00:47:28;;;;;;;;;;;25.30;99.90;;;;;;5074970;28;19954;-77
2022/08/10 00:49:53;;;;;;;;;;;25.30;99.90;;;;;;5092976;28;19931;-75
2022/08/10 00:52:19;;;;;;;;;;;25.40;99.90;;;;;;5074523;28;19998;-75
2022/08/10 00:54:46;;;;;;;;;;;25.40;99.90;;;;;;5092768;28;20226;-75
2022/08/10 00:57:12;;;;;;;;;;;25.30;99.90;;;;;;5074193;28;19988;-74
2022/08/10 00:59:38;;;;;;;;;;;25.20;99.90;;;;;;5092540;28;19950;-76
2022/08/10 01:02:04;;;;;;;;;;;25.20;99.90;;;;;;5092545;28;19982;-76
2022/08/10 01:04:29;;;;;;;;;;;25.20;99.90;;;;;;5092657;28;19914;-77
2022/08/10 01:06:58;;;;;;;;;;;25.10;99.90;;;;;;5092893;28;20117;-77
2022/08/10 01:09:33;;;;;;;;;;;25.20;99.90;;;;;;5092450;28;20377;-75
2022/08/10 01:12:08;;;;;;;;;;;25.30;99.90;;;;;;5092262;28;20369;-76
2022/08/10 01:14:45;;;;;;;;;;;25.30;99.90;;;;;;5092337;28;19951;-76
2022/08/10 01:17:18;;;;;;;;;;;25.30;99.90;;;;;;5092073;28;20266;-75
2022/08/10 01:19:54;;;;;;;;;;;25.10;99.90;;;;;;5092461;28;20078;-75
2022/08/10 01:22:42;;;;;;;;;;;25.00;99.90;;;;;;5092357;28;19987;-76
2022/08/10 01:25:30;;;;;;;;;;;25.00;99.90;;;;;;5092541;28;20354;-75
2022/08/10 01:28:02;;;;;;;;;;;25.00;99.90;;;;;;5092332;28;20261;-74
2022/08/10 01:30:29;;;;;;;;;;;25.00;99.90;;;;;;5092286;28;19947;-76
2022/08/10 01:32:54;;;;;;;;;;;24.80;99.90;;;;;;5092182;28;20230;-75
2022/08/10 01:35:28;;;;;;;;;;;24.70;99.90;;;;;;5091271;28;19916;-75
2022/08/10 01:37:57;;;;;;;;;;;24.70;99.90;;;;;;5092302;28;19909;-74
2022/08/10 01:40:24;;;;;;;;;;;24.70;99.90;;;;;;5092217;28;19977;-75
2022/08/10 01:42:51;;;;;;;;;;;24.70;99.90;;;;;;5091870;28;19908;-75
2022/08/10 01:45:18;;;;;;;;;;;24.80;99.90;;;;;;5092157;28;20348;-75
2022/08/10 01:50:46;;;;;;;;;;;24.70;99.90;;;;;;5075525;28;19908;-76
2022/08/10 01:53:17;;;;;;;;;;;24.70;99.90;;;;;;5091831;28;19923;-76
2022/08/10 01:55:44;;;;;;;;;;;24.70;99.90;;;;;;5092048;28;20003;-74
2022/08/10 01:58:10;;;;;;;;;;;24.70;99.90;;;;;;5091906;28;19978;-76
2022/08/10 02:00:38;;;;;;;;;;;24.80;99.90;;;;;;5092594;28;20335;-75
2022/08/10 02:03:04;;;;;;;;;;;24.80;99.90;;;;;;5092152;28;19915;-75
2022/08/10 02:05:30;;;;;;;;;;;24.80;99.90;;;;;;5092029;28;20262;-75
2022/08/10 02:07:57;;;;;;;;;;;24.70;99.90;;;;;;5074000;28;19931;-74
2022/08/10 02:10:23;;;;;;;;;;;24.70;99.90;;;;;;5091989;28;19949;-75
2022/08/10 02:12:48;;;;;;;;;;;24.70;99.90;;;;;;5092446;28;19919;-75
2022/08/10 02:15:16;;;;;;;;;;;24.60;99.90;;;;;;5091929;28;19908;-75
2022/08/10 02:17:45;;;;;;;;;;;24.60;99.90;;;;;;5091807;28;19919;-75
2022/08/10 02:20:18;;;;;;;;;;;24.60;99.90;;;;;;5091454;28;19988;-75
2022/08/10 02:22:44;;;;;;;;;;;24.60;99.90;;;;;;5092083;28;19916;-76
2022/08/10 02:25:11;;;;;;;;;;;24.60;99.90;;;;;;5092208;28;19912;-76
2022/08/10 02:27:37;;;;;;;;;;;24.70;99.90;;;;;;5092609;28;19908;-76
2022/08/10 02:30:03;;;;;;;;;;;24.80;99.90;;;;;;5092281;28;20206;-76
2022/08/10 02:32:31;;;;;;;;;;;24.80;99.90;;;;;;5091585;28;20007;-76
2022/08/10 02:34:57;;;;;;;;;;;24.70;99.90;;;;;;5092066;28;19984;-75
2022/08/10 02:37:25;;;;;;;;;;;24.80;99.90;;;;;;5074589;28;19908;-76
2022/08/10 02:39:51;;;;;;;;;;;24.70;99.90;;;;;;5092930;28;19915;-75
2022/08/10 02:42:24;;;;;;;;;;;24.80;99.90;;;;;;5093002;28;19920;-75
2022/08/10 02:44:55;;;;;;;;;;;24.80;99.90;;;;;;5112226;28;19934;-75
2022/08/10 02:47:25;;;;;;;;;;;24.80;99.90;;;;;;5112565;28;20151;-75
2022/08/10 02:49:56;;;;;;;;;;;24.70;99.90;;;;;;5092704;28;20281;-75
2022/08/10 02:52:26;;;;;;;;;;;24.70;99.90;;;;;;5110979;28;19912;-75
2022/08/10 02:54:54;;;;;;;;;;;24.60;99.90;;;;;;5110395;28;19934;-74
2022/08/10 02:57:22;;;;;;;;;;;24.60;99.90;;;;;;5109073;28;19915;-74
2022/08/10 02:59:49;;;;;;;;;;;24.60;99.90;;;;;;5107637;28;19908;-75
2022/08/10 03:02:33;;;;;;;;;;;24.60;99.90;;;;;;5106808;28;19912;-75
2022/08/10 03:05:00;;;;;;;;;;;24.60;99.90;;;;;;5111462;28;19915;-75
2022/08/10 03:07:28;;;;;;;;;;;24.70;99.90;;;;;;5113564;28;19911;-75
2022/08/10 03:09:54;;;;;;;;;;;24.70;99.90;;;;;;5098841;28;20007;-75
2022/08/10 03:12:20;;;;;;;;;;;24.70;99.90;;;;;;5111193;28;19919;-76
2022/08/10 03:14:46;;;;;;;;;;;24.70;99.90;;;;;;5114401;28;19980;-76
2022/08/10 03:17:13;;;;;;;;;;;24.70;99.90;;;;;;5115015;28;19916;-75
2022/08/10 03:19:41;;;;;;;;;;;24.60;99.90;;;;;;5112390;28;19923;-75
2022/08/10 03:22:07;;;;;;;;;;;24.50;99.90;;;;;;5086306;28;19995;-76
2022/08/10 03:24:33;;;;;;;;;;;24.50;99.90;;;;;;5098135;28;20249;-75
2022/08/10 03:26:59;;;;;;;;;;;24.50;99.90;;;;;;5098489;28;19909;-75
2022/08/10 03:29:25;;;;;;;;;;;24.40;99.90;;;;;;5098314;28;19914;-75
2022/08/10 03:31:51;;;;;;;;;;;24.40;99.90;;;;;;5098573;28;19908;-76
2022/08/10 03:34:18;;;;;;;;;;;24.50;99.90;;;;;;5098076;28;19914;-76
2022/08/10 03:36:43;;;;;;;;;;;24.60;99.90;;;;;;5079412;28;19908;-76
2022/08/10 03:39:09;;;;;;;;;;;24.60;99.90;;;;;;5101004;28;19960;-75
2022/08/10 03:41:35;;;;;;;;;;;24.50;99.90;;;;;;5097386;28;19914;-76
2022/08/10 03:44:01;;;;;;;;;;;24.60;99.90;;;;;;5097849;28;19931;-76
2022/08/10 03:46:28;;;;;;;;;;;24.60;99.90;;;;;;5097069;28;19917;-76
2022/08/10 03:48:55;;;;;;;;;;;24.60;99.90;;;;;;5101900;28;19915;-76
2022/08/10 03:51:21;;;;;;;;;;;24.60;99.90;;;;;;5113708;28;19909;-75
2022/08/10 03:53:48;;;;;;;;;;;24.60;99.90;;;;;;5114732;28;19919;-78
2022/08/10 03:56:14;;;;;;;;;;;24.60;99.90;;;;;;5110712;28;19982;-75
2022/08/10 03:58:40;;;;;;;;;;;24.60;99.90;;;;;;5112450;28;19908;-75
2022/08/10 04:01:06;;;;;;;;;;;24.70;99.90;;;;;;5111018;28;19959;-76
2022/08/10 04:03:32;;;;;;;;;;;24.70;99.90;;;;;;5092705;28;19916;-76
2022/08/10 04:05:58;;;;;;;;;;;24.70;99.90;;;;;;5112570;28;19954;-76
2022/08/10 04:08:23;;;;;;;;;;;24.70;99.90;;;;;;5108860;28;19912;-76
2022/08/10 04:10:49;;;;;;;;;;;24.70;99.90;;;;;;5096105;28;19901;-75
2022/08/10 04:13:14;;;;;;;;;;;24.70;99.90;;;;;;5112306;28;19981;-76
2022/08/10 04:15:40;;;;;;;;;;;24.70;99.90;;;;;;5089870;28;20416;-76
2022/08/10 04:18:05;;;;;;;;;;;24.70;99.90;;;;;;5091238;28;19943;-76
2022/08/10 04:20:34;;;;;;;;;;;24.70;99.90;;;;;;5107789;28;19909;-75
2022/08/10 04:23:02;;;;;;;;;;;24.70;99.90;;;;;;5107880;28;19916;-76
2022/08/10 04:25:28;;;;;;;;;;;24.60;99.90;;;;;;5101472;28;19912;-75
2022/08/10 04:27:54;;;;;;;;;;;24.70;99.90;;;;;;5096673;28;19908;-75
2022/08/10 04:30:19;;;;;;;;;;;24.60;99.90;;;;;;5094810;28;19915;-75
2022/08/10 04:32:46;;;;;;;;;;;24.60;99.90;;;;;;5076109;28;20344;-75
2022/08/10 04:35:15;;;;;;;;;;;24.70;99.90;;;;;;5094502;28;20456;-76
2022/08/10 04:37:41;;;;;;;;;;;24.70;99.90;;;;;;5093957;28;19908;-77
2022/08/10 04:40:07;;;;;;;;;;;24.70;99.90;;;;;;5093936;28;19915;-77
2022/08/10 04:42:33;;;;;;;;;;;24.70;99.90;;;;;;5094084;28;19965;-76
2022/08/10 04:44:58;;;;;;;;;;;24.80;99.90;;;;;;5093880;28;19915;-76
2022/08/10 04:47:24;;;;;;;;;;;24.80;99.90;;;;;;5095340;28;19908;-78
2022/08/10 04:49:49;;;;;;;;;;;24.80;99.90;;;;;;5094310;28;19944;-77
2022/08/10 04:52:18;;;;;;;;;;;24.80;99.90;;;;;;5099290;28;19919;-77
2022/08/10 04:54:43;;;;;;;;;;;24.70;99.90;;;;;;5104394;28;19955;-76
2022/08/10 04:57:09;;;;;;;;;;;24.60;99.90;;;;;;5102487;28;19909;-76
2022/08/10 04:59:35;;;;;;;;;;;24.60;99.90;;;;;;5100709;28;20149;-75
2022/08/10 05:02:00;;;;;;;;;;;24.60;99.90;;;;;;5098681;28;19908;-75
2022/08/10 05:04:26;;;;;;;;;;;24.60;99.90;;;;;;5096619;28;19908;-76
2022/08/10 05:06:51;;;;;;;;;;;24.60;99.90;;;;;;5095125;28;19919;-77
2022/08/10 05:09:17;;;;;;;;;;;24.50;99.90;;;;;;5095754;28;19918;-76
2022/08/10 05:11:43;;;;;;;;;;;24.60;99.90;;;;;;5094577;28;20369;-76
2022/08/10 05:14:08;;;;;;;;;;;24.60;99.90;;;;;;5092873;28;20266;-76
2022/08/10 05:16:34;;;;;;;;;;;24.60;99.90;;;;;;5092874;28;19970;-77
2022/08/10 05:19:00;;;;;;;;;;;24.60;99.90;;;;;;5075109;28;20365;-76
2022/08/10 05:21:25;;;;;;;;;;;24.60;99.90;;;;;;5096281;28;20262;-75
2022/08/10 05:23:51;;;;;;;;;;;24.70;99.90;;;;;;5093883;28;20031;-76
2022/08/10 05:26:16;;;;;;;;;;;24.70;99.90;;;;;;5094376;28;19908;-77
2022/08/10 05:28:42;;;;;;;;;;;24.70;99.90;;;;;;5093130;28;19915;-78
2022/08/10 05:31:07;;;;;;;;;;;24.70;99.90;;;;;;5093475;28;20039;-77
2022/08/10 05:33:33;;;;;;;;;;;24.80;99.90;;;;;;5092758;28;20387;-77
2022/08/10 05:35:59;;;;;;;;;;;24.80;99.90;;;;;;5074754;28;19912;-76
2022/08/10 05:38:25;;;;;;;;;;;24.80;99.90;;;;;;5092883;28;20027;-77
2022/08/10 05:40:51;;;;;;;;;;;24.80;99.90;;;;;;5074918;28;19908;-77
2022/08/10 05:43:18;;;;;;;;;;;24.90;99.90;;;;;;5074415;28;20207;-76
2022/08/10 05:45:43;;;;;;;;;;;24.90;99.90;;;;;;5092175;28;19915;-76
2022/08/10 05:48:09;;;;;;;;;;;24.90;99.90;;;;;;5093063;28;19908;-77
2022/08/10 05:50:35;;;;;;;;;;;24.80;99.90;;;;;;5074439;28;19947;-77
2022/08/10 05:53:00;;;;;;;;;;;24.90;99.90;;;;;;5095137;28;19913;-77
2022/08/10 05:55:28;;;;;;;;;;;24.80;99.90;;;;;;5092299;28;19965;-77
2022/08/10 05:57:54;;;;;;;;;;;24.90;99.90;;;;;;5092155;28;19962;-76
2022/08/10 06:00:23;;;;;;;;;;;24.90;99.90;;;;;;5092311;28;19938;-76
2022/08/10 06:02:51;;;;;;;;;;;25.00;99.90;;;;;;5092298;28;20034;-77
2022/08/10 06:05:22;;;;;;;;;;;25.10;99.90;;;;;;5073724;28;19976;-77
2022/08/10 06:07:59;;;;;;;;;;;25.30;99.90;;;;;;5076774;28;19908;-76
2022/08/10 06:10:26;;;;;;;;;;;25.30;99.90;;;;;;5092381;28;19904;-76
2022/08/10 06:15:38;;;;;;;;;;;25.30;99.90;;;;;;5092143;28;19915;-76
2022/08/10 06:18:05;;;;;;;;;;;25.40;99.90;;;;;;5092088;28;20361;-76
2022/08/10 06:20:31;;;;;;;;;;;25.50;99.90;;;;;;5092304;28;19908;-75
2022/08/10 06:22:57;;;;;;;;;;;25.50;99.90;;;;;;5091950;28;20007;-77
2022/08/10 06:25:24;;;;;;;;;;;25.50;99.90;;;;;;5073733;28;20070;-77
2022/08/10 06:27:49;;;;;;;;;;;25.40;99.90;;;;;;5091995;28;19908;-77
2022/08/10 06:30:16;;;;;;;;;;;25.50;99.90;;;;;;5073924;28;19923;-76
2022/08/10 06:32:41;;;;;;;;;;;25.60;99.90;;;;;;5073423;28;19985;-75
2022/08/10 06:35:07;;;;;;;;;;;25.60;99.90;;;;;;5073569;28;20384;-78
2022/08/10 06:37:33;;;;;;;;;;;25.70;99.90;;;;;;5092945;28;19908;-77
2022/08/10 06:39:58;;;;;;;;;;;25.80;99.90;;;;;;5074473;28;20297;-78
2022/08/10 06:42:27;;;;;;;;;;;25.80;99.90;;;;;;5092567;28;19915;-77
2022/08/10 06:44:53;;;;;;;;;;;25.80;99.90;;;;;;5074596;28;19909;-76
2022/08/10 06:47:19;;;;;;;;;;;25.80;99.90;;;;;;5091987;28;20193;-77
2022/08/10 06:49:45;;;;;;;;;;;25.80;99.90;;;;;;5092369;28;19914;-78
2022/08/10 06:52:11;;;;;;;;;;;25.80;99.90;;;;;;5092142;28;20466;-77
2022/08/10 06:54:37;;;;;;;;;;;25.90;99.90;;;;;;5073962;28;19908;-78
2022/08/10 06:57:03;;;;;;;;;;;26.10;99.90;;;;;;5092339;28;19916;-77
2022/08/10 06:59:36;;;;;;;;;;;26.00;99.90;;;;;;5092237;28;19912;-76
2022/08/10 07:02:04;;;;;;;;;;;25.90;99.90;;;;;;5092294;28;20289;-77
2022/08/10 07:04:32;;;;;;;;;;;26.10;99.90;;;;;;5092192;28;20338;-78
2022/08/10 07:06:59;;;;;;;;;;;26.00;99.90;;;;;;5091827;28;19931;-77
2022/08/10 07:09:25;;;;;;;;;;;26.10;99.90;;;;;;5091814;28;19912;-76
2022/08/10 07:11:52;;;;;;;;;;;26.20;99.90;;;;;;5073850;28;19934;-77
2022/08/10 07:14:18;;;;;;;;;;;26.20;99.90;;;;;;5091297;28;19920;-76
2022/08/10 07:16:44;;;;;;;;;;;26.30;99.90;;;;;;5092084;28;19916;-76
2022/08/10 07:19:11;;;;;;;;;;;26.20;99.90;;;;;;5091357;28;19915;-76
2022/08/10 07:21:41;;;;;;;;;;;26.20;99.90;;;;;;5091351;28;19912;-78
2022/08/10 07:24:08;;;;;;;;;;;26.20;99.90;;;;;;5091771;28;19990;-76
2022/08/10 07:26:35;;;;;;;;;;;26.30;99.90;;;;;;5091097;28;19966;-76
2022/08/10 07:29:01;;;;;;;;;;;26.30;99.90;;;;;;5074230;28;20337;-77
2022/08/10 07:31:27;;;;;;;;;;;26.30;99.90;;;;;;5092817;28;19915;-76
2022/08/10 07:33:54;;;;;;;;;;;26.50;99.90;;;;;;5095503;28;19994;-77
2022/08/10 07:36:21;;;;;;;;;;;26.60;99.90;;;;;;5104168;28;19916;-77
2022/08/10 07:38:48;;;;;;;;;;;26.60;99.90;;;;;;5113738;28;19975;-77
2022/08/10 07:41:16;;;;;;;;;;;26.70;99.90;;;;;;5112577;28;19908;-75
2022/08/10 07:43:42;;;;;;;;;;;26.60;99.90;;;;;;5111061;28;19915;-78
2022/08/10 07:46:10;;;;;;;;;;;26.80;99.90;;;;;;5110246;28;19990;-76
2022/08/10 07:48:40;;;;;;;;;;;26.90;99.90;;;;;;5092547;28;19967;-76
2022/08/10 07:51:08;;;;;;;;;;;26.90;99.90;;;;;;5100588;28;19908;-77
2022/08/10 07:53:37;;;;;;;;;;;26.70;99.90;;;;;;5095543;28;19970;-76
2022/08/10 07:56:03;;;;;;;;;;;26.70;99.90;;;;;;5094826;28;20404;-77
2022/08/10 07:58:30;;;;;;;;;;;27.00;99.90;;;;;;5094473;28;19916;-76
2022/08/10 08:00:57;;;;;;;;;;;27.10;99.90;;;;;;5094593;28;19955;-77
2022/08/10 08:03:24;;;;;;;;;;;27.00;99.90;;;;;;5094544;28;20395;-76
2022/08/10 08:05:50;;;;;;;;;;;27.00;99.90;;;;;;5094200;28;19915;-76
2022/08/10 08:08:17;;;;;;;;;;;27.00;99.90;;;;;;5094896;28;19984;-76
2022/08/10 08:10:44;;;;;;;;;;;26.90;99.90;;;;;;5076192;28;19916;-76
2022/08/10 08:13:10;;;;;;;;;;;26.90;99.90;;;;;;5078974;28;19991;-76
2022/08/10 08:15:37;;;;;;;;;;;27.10;99.90;;;;;;5102682;28;19908;-76
2022/08/10 08:18:04;;;;;;;;;;;27.30;99.90;;;;;;5099767;28;19912;-76
2022/08/10 08:20:30;;;;;;;;;;;27.20;99.90;;;;;;5096594;28;19908;-77
2022/08/10 08:22:56;;;;;;;;;;;27.10;99.90;;;;;;5077982;28;19923;-77
2022/08/10 08:25:24;;;;;;;;;;;26.90;99.90;;;;;;5095858;28;20205;-76
2022/08/10 08:27:52;;;;;;;;;;;27.00;99.90;;;;;;5097525;28;19940;-76
2022/08/10 08:30:19;;;;;;;;;;;27.20;99.90;;;;;;5105289;28;19976;-76
2022/08/10 08:32:45;;;;;;;;;;;27.40;99.90;;;;;;5110148;28;19912;-76
2022/08/10 08:35:13;;;;;;;;;;;27.60;99.90;;;;;;5110369;28;19999;-76
2022/08/10 08:37:39;;;;;;;;;;;27.70;99.90;;;;;;5091946;28;19918;-75
2022/08/10 08:40:07;;;;;;;;;;;27.80;99.90;;;;;;5110320;28;19912;-75
2022/08/10 08:42:51;;;;;;;;;;;27.50;99.90;;;;;;5105946;28;19908;-75
2022/08/10 08:45:35;;;;;;;;;;;27.40;99.90;;;;;;5096734;28;20002;-77
2022/08/10 08:48:03;;;;;;;;;;;27.30;99.90;;;;;;5093863;28;19932;-77
2022/08/10 08:50:41;;;;;;;;;;;27.40;99.90;;;;;;5093532;28;19939;-76
2022/08/10 08:53:07;;;;;;;;;;;27.40;99.90;;;;;;5093651;28;20365;-77
2022/08/10 08:55:51;;;;;;;;;;;27.50;99.90;;;;;;5093635;28;19915;-76
2022/08/10 08:58:34;;;;;;;;;;;27.70;99.90;;;;;;5093483;28;19908;-76
2022/08/10 09:01:04;;;;;;;;;;;27.90;99.90;;;;;;5093429;28;20269;-77
2022/08/10 09:03:29;;;;;;;;;;;27.90;99.90;;;;;;5093795;28;19912;-77
2022/08/10 09:06:14;;;;;;;;;;;28.10;99.90;;;;;;5075296;28;19954;-77
2022/08/10 09:08:42;;;;;;;;;;;28.10;99.90;;;;;;5093338;28;19908;-77
2022/08/10 09:11:20;;;;;;;;;;;28.20;99.90;;;;;;5074856;28;19908;-77
2022/08/10 09:13:45;;;;;;;;;;;28.00;99.90;;;;;;5093594;28;19912;-77
2022/08/10 09:16:30;;;;;;;;;;;28.10;99.90;;;;;;5096549;28;20422;-77
2022/08/10 09:19:23;;;;;;;;;;;28.30;99.90;;;;;;5099904;28;19919;-76
2022/08/10 09:21:55;;;;;;;;;;;28.40;99.90;;;;;;5098087;28;19916;-76
2022/08/10 09:24:21;;;;;;;;;;;28.40;99.90;;;;;;5099826;28;19908;-77
2022/08/10 09:26:50;;;;;;;;;;;28.40;99.90;;;;;;5099161;28;20391;-77
2022/08/10 09:29:23;;;;;;;;;;;28.40;99.90;;;;;;5093506;28;19916;-76
2022/08/10 09:31:53;;;;;;;;;;;28.20;99.90;;;;;;5094368;28;20285;-76
2022/08/10 09:34:29;;;;;;;;;;;28.30;99.90;;;;;;5093425;28;19912;-76
2022/08/10 09:36:54;;;;;;;;;;;28.50;99.90;;;;;;5074872;28;19915;-77
2022/08/10 09:39:37;;;;;;;;;;;28.50;99.90;;;;;;5092717;28;20285;-78
2022/08/10 09:42:22;;;;;;;;;;;28.50;99.90;;;;;;5092511;28;19908;-78
2022/08/10 09:45:06;;;;;;;;;;;28.50;99.90;;;;;;5092531;28;19915;-77
2022/08/10 09:47:38;;;;;;;;;;;28.70;99.90;;;;;;5074305;28;20352;-77
2022/08/10 09:50:19;;;;;;;;;;;28.70;99.90;;;;;;5092721;28;20292;-77
2022/08/10 09:53:07;;;;;;;;;;;28.60;99.90;;;;;;5092198;28;19919;-76
2022/08/10 09:55:59;;;;;;;;;;;28.50;99.90;;;;;;5091815;28;20289;-76
2022/08/10 09:58:25;;;;;;;;;;;28.50;99.90;;;;;;5043566;28;19914;-76
2022/08/10 10:00:53;;;;;;;;;;;28.60;99.90;;;;;;5093688;28;19980;-77
2022/08/10 10:03:25;;;;;;;;;;;28.70;99.90;;;;;;5092366;28;19961;-78
2022/08/10 10:05:51;;;;;;;;;;;28.70;99.90;;;;;;5073792;28;19915;-78
2022/08/10 10:08:22;;;;;;;;;;;28.80;99.90;;;;;;5092490;28;20269;-77
2022/08/10 10:10:47;;;;;;;;;;;29.00;99.90;;;;;;5091976;28;20469;-76
2022/08/10 10:13:26;;;;;;;;;;;28.90;99.90;;;;;;5092262;28;20002;-76
2022/08/10 10:16:11;;;;;;;;;;;28.80;99.90;;;;;;5091708;28;19908;-76
2022/08/10 10:18:43;;;;;;;;;;;29.00;99.90;;;;;;5091687;28;20341;-76
2022/08/10 10:21:27;;;;;;;;;;;28.80;99.90;;;;;;5091802;28;19915;-76
2022/08/10 10:24:02;;;;;;;;;;;29.10;99.90;;;;;;5093273;28;19916;-77
2022/08/10 10:26:36;;;;;;;;;;;29.30;99.90;;;;;;5091642;28;19916;-77
2022/08/10 10:29:20;;;;;;;;;;;29.50;99.90;;;;;;5091835;28;20195;-77
2022/08/10 10:31:49;;;;;;;;;;;29.60;99.90;;;;;;5094776;28;20438;-77
2022/08/10 10:34:20;;;;;;;;;;;29.70;99.90;;;;;;5095592;28;19955;-78
2022/08/10 10:36:46;;;;;;;;;;;29.60;99.90;;;;;;5098079;28;19915;-77
2022/08/10 10:39:12;;;;;;;;;;;29.60;99.90;;;;;;5098756;28;19908;-75
2022/08/10 10:42:00;;;;;;;;;;;29.80;99.90;;;;;;5078766;28;20511;-77
2022/08/10 10:44:31;;;;;;;;;;;29.80;99.90;;;;;;5096998;28;20296;-79
2022/08/10 10:47:00;;;;;;;;;;;29.50;99.90;;;;;;5079773;28;19915;-77
2022/08/10 10:49:44;;;;;;;;;;;29.50;99.90;;;;;;5093415;28;20357;-79
2022/08/10 10:52:16;;;;;;;;;;;29.60;99.90;;;;;;5092737;28;19931;-78
2022/08/10 10:55:00;;;;;;;;;;;29.80;99.90;;;;;;5092376;28;19909;-78
2022/08/10 10:57:25;;;;;;;;;;;29.70;99.90;;;;;;5091941;28;19908;-77
2022/08/10 10:59:54;;;;;;;;;;;29.80;99.90;;;;;;5092752;28;19997;-76
2022/08/10 11:02:28;;;;;;;;;;;30.00;99.90;;;;;;5092501;28;19908;-79
2022/08/10 11:04:53;;;;;;;;;;;29.90;99.90;;;;;;5092076;28;19988;-78
2022/08/10 11:07:26;;;;;;;;;;;29.80;99.90;;;;;;5075081;28;20380;-78
2022/08/10 11:09:51;;;;;;;;;;;29.80;99.90;;;;;;5096054;28;20362;-77
2022/08/10 11:12:20;;;;;;;;;;;30.00;99.90;;;;;;5095702;28;19934;-79
2022/08/10 11:14:52;;;;;;;;;;;29.80;99.90;;;;;;5096288;28;19930;-77
2022/08/10 11:17:25;;;;;;;;;;;29.80;99.90;;;;;;5095935;28;19957;-78
2022/08/10 11:19:51;;;;;;;;;;;29.80;99.90;;;;;;5077460;28;19916;-76
2022/08/10 11:22:23;;;;;;;;;;;29.90;99.90;;;;;;5095800;28;19916;-77
2022/08/10 11:24:55;;;;;;;;;;;29.60;99.90;;;;;;5096230;28;19908;-79
2022/08/10 11:27:27;;;;;;;;;;;29.60;99.90;;;;;;5096759;28;19908;-78
2022/08/10 11:30:13;;;;;;;;;;;29.90;99.90;;;;;;5097015;28;19908;-77
2022/08/10 11:32:50;;;;;;;;;;;30.20;99.90;;;;;;5094492;28;19962;-77
2022/08/10 11:35:45;;;;;;;;;;;30.30;99.90;;;;;;5095578;28;20025;-78
2022/08/10 11:38:23;;;;;;;;;;;30.30;99.90;;;;;;5078424;28;19908;-78
2022/08/10 11:40:51;;;;;;;;;;;30.40;99.90;;;;;;5095236;28;19915;-77
2022/08/10 11:43:22;;;;;;;;;;;30.50;99.90;;;;;;5094550;28;19984;-75
2022/08/10 11:45:53;;;;;;;;;;;30.50;99.90;;;;;;5094626;28;19908;-77
2022/08/10 11:48:51;;;;;;;;;;;30.40;99.90;;;;;;5095745;28;19908;-78
2022/08/10 11:51:23;;;;;;;;;;;30.20;99.90;;;;;;5050078;28;19909;-77
2022/08/10 11:53:55;;;;;;;;;;;30.30;99.90;;;;;;5095260;28;19912;-76
2022/08/10 11:56:44;;;;;;;;;;;30.10;99.90;;;;;;5095723;28;19908;-78
2022/08/10 12:01:55;;;;;;;;;;;30.30;99.90;;;;;;5095621;28;19916;-77
2022/08/10 12:04:22;;;;;;;;;;;30.50;99.90;;;;;;5094692;28;20327;-77
2022/08/10 12:06:48;;;;;;;;;;;30.30;99.90;;;;;;5094937;28;19908;-77
2022/08/10 12:09:16;;;;;;;;;;;30.40;99.90;;;;;;5094257;28;20002;-76
2022/08/10 12:11:41;;;;;;;;;;;30.50;99.90;;;;;;5094386;28;19908;-78
2022/08/10 12:14:10;;;;;;;;;;;30.70;99.90;;;;;;5094841;28;20015;-77
2022/08/10 12:16:38;;;;;;;;;;;30.70;99.80;;;;;;5095959;28;19915;-77
2022/08/10 12:19:04;;;;;;;;;;;30.50;99.90;;;;;;5099151;28;19908;-77
2022/08/10 12:21:30;;;;;;;;;;;30.50;99.90;;;;;;5111367;28;19919;-78
2022/08/10 12:24:00;;;;;;;;;;;30.50;99.90;;;;;;5113392;28;19954;-75
2022/08/10 12:26:31;;;;;;;;;;;30.70;99.90;;;;;;5110672;28;20337;-76
2022/08/10 12:29:03;;;;;;;;;;;30.70;99.90;;;;;;5110260;28;19919;-76
2022/08/10 12:31:32;;;;;;;;;;;30.90;99.90;;;;;;5108379;28;19915;-77
2022/08/10 12:34:16;;;;;;;;;;;30.80;99.70;;;;;;5103056;28;19919;-78
2022/08/10 12:36:45;;;;;;;;;;;30.60;99.80;;;;;;5093699;28;19919;-77
2022/08/10 12:39:14;;;;;;;;;;;30.70;99.90;;;;;;5093884;28;19908;-76
2022/08/10 12:41:47;;;;;;;;;;;30.80;99.80;;;;;;5093302;28;20281;-76
2022/08/10 12:44:19;;;;;;;;;;;30.80;99.80;;;;;;5093631;28;19913;-77
2022/08/10 12:46:50;;;;;;;;;;;31.00;99.80;;;;;;5093964;28;19908;-77
2022/08/10 12:49:25;;;;;;;;;;;31.10;99.70;;;;;;5093506;28;19931;-77
2022/08/10 12:52:13;;;;;;;;;;;30.90;99.60;;;;;;5093330;28;19908;-75
2022/08/10 12:54:40;;;;;;;;;;;30.80;99.60;;;;;;5082267;28;20285;-77
2022/08/10 12:57:11;;;;;;;;;;;30.60;99.90;;;;;;5093364;28;19913;-77
2022/08/10 12:59:44;;;;;;;;;;;30.70;99.90;;;;;;5093241;28;19919;-77
2022/08/10 13:02:13;;;;;;;;;;;31.00;99.90;;;;;;5093243;28;20369;-76
2022/08/10 13:04:41;;;;;;;;;;;31.00;99.80;;;;;;5075104;28;19954;-76
2022/08/10 13:07:07;;;;;;;;;;;31.10;99.90;;;;;;5074914;28;19915;-75
2022/08/10 13:09:33;;;;;;;;;;;31.00;99.80;;;;;;5093176;28;19912;-76
2022/08/10 13:12:01;;;;;;;;;;;31.00;99.80;;;;;;5093402;28;19915;-77
2022/08/10 13:14:33;;;;;;;;;;;30.70;99.90;;;;;;5093226;28;19912;-77
2022/08/10 13:16:59;;;;;;;;;;;30.70;99.90;;;;;;5093330;28;19935;-77
2022/08/10 13:19:26;;;;;;;;;;;30.80;99.90;;;;;;5092950;28;20281;-76
2022/08/10 13:21:52;;;;;;;;;;;30.60;99.90;;;;;;5093031;28;19920;-74
2022/08/10 13:24:22;;;;;;;;;;;30.60;99.90;;;;;;5074595;28;19916;-77
2022/08/10 13:26:50;;;;;;;;;;;30.20;99.90;;;;;;5092809;28;19914;-75
2022/08/10 13:29:17;;;;;;;;;;;30.20;99.90;;;;;;5092683;28;20276;-77
2022/08/10 13:31:44;;;;;;;;;;;30.30;99.90;;;;;;5091707;28;19912;-77
2022/08/10 13:34:15;;;;;;;;;;;30.40;99.90;;;;;;5092391;28;19912;-76
2022/08/10 13:36:42;;;;;;;;;;;30.50;99.90;;;;;;5074584;28;20338;-76
2022/08/10 13:39:09;;;;;;;;;;;30.50;99.90;;;;;;5074321;28;19914;-75
2022/08/10 13:41:39;;;;;;;;;;;30.70;99.90;;;;;;5092862;28;19955;-77
2022/08/10 13:44:06;;;;;;;;;;;30.80;99.90;;;;;;5092466;28;20297;-77
2022/08/10 13:46:36;;;;;;;;;;;30.90;99.90;;;;;;5092362;28;19924;-78
2022/08/10 13:49:03;;;;;;;;;;;30.80;99.90;;;;;;5092574;28;19985;-79
2022/08/10 13:51:33;;;;;;;;;;;30.70;99.90;;;;;;5093233;28;19948;-78
2022/08/10 13:54:00;;;;;;;;;;;30.50;99.90;;;;;;5094426;28;19920;-78
2022/08/10 13:56:28;;;;;;;;;;;30.50;99.90;;;;;;5074747;28;20277;-77
2022/08/10 13:58:54;;;;;;;;;;;30.70;99.90;;;;;;5092664;28;19920;-78
2022/08/10 14:01:25;;;;;;;;;;;30.70;99.90;;;;;;5092713;28;19908;-78
2022/08/10 14:03:51;;;;;;;;;;;30.70;99.90;;;;;;5074882;28;19985;-76
2022/08/10 14:06:18;;;;;;;;;;;30.60;99.70;;;;;;5098822;28;19908;-78
2022/08/10 14:08:45;;;;;;;;;;;30.60;99.50;;;;;;5106994;28;19908;-78
2022/08/10 14:11:13;;;;;;;;;;;30.30;99.60;;;;;;5108429;28;20296;-76
2022/08/10 14:13:44;;;;;;;;;;;30.20;99.40;;;;;;5108434;28;19912;-75
2022/08/10 14:16:10;;;;;;;;;;;30.30;99.50;;;;;;5107995;28;19908;-77
2022/08/10 14:18:37;;;;;;;;;;;30.30;99.20;;;;;;5108533;28;19971;-77
2022/08/10 14:21:03;;;;;;;;;;;30.30;99.00;;;;;;5090034;28;19912;-77
2022/08/10 14:23:30;;;;;;;;;;;30.30;99.00;;;;;;5108274;28;19923;-76
2022/08/10 14:26:01;;;;;;;;;;;30.30;98.90;;;;;;5109430;28;19927;-76
2022/08/10 14:28:39;;;;;;;;;;;30.40;98.60;;;;;;5108576;28;19935;-77
2022/08/10 14:31:05;;;;;;;;;;;30.30;98.70;;;;;;5090315;28;19908;-75
2022/08/10 14:33:31;;;;;;;;;;;30.40;98.50;;;;;;5107007;28;19912;-78
2022/08/10 14:35:57;;;;;;;;;;;30.20;98.50;;;;;;5087560;28;20047;-78